createdAt,value
2023-11-23T00:00:17.105Z,1.60
2023-11-23T00:02:44.710Z,2.03
2023-11-23T00:05:12.326Z,1.92
2023-11-23T00:07:39.906Z,2.10
2023-11-23T00:10:08.534Z,1.60
2023-11-23T00:12:36.275Z,1.83
2023-11-23T00:15:05.085Z,2.15
2023-11-23T00:17:34.142Z,1.95
2023-11-23T00:20:02.100Z,2.60
2023-11-23T00:22:33.948Z,2.42
2023-11-23T00:25:01.887Z,1.70
2023-11-23T00:27:31.481Z,1.88
2023-11-23T00:30:01.141Z,1.95
2023-11-23T00:32:29.912Z,1.52
2023-11-23T00:34:57.277Z,2.33
2023-11-23T00:37:45.823Z,2.38
2023-11-23T00:40:17.106Z,2.00
2023-11-23T00:42:46.270Z,2.20
2023-11-23T00:45:16.178Z,2.28
2023-11-23T00:47:44.315Z,2.10
2023-11-23T00:50:11.700Z,2.15
2023-11-23T00:52:39.179Z,2.05
2023-11-23T00:55:07.166Z,2.13
2023-11-23T00:57:36.900Z,2.03
2023-11-23T01:00:07.360Z,2.10
2023-11-23T01:02:35.000Z,1.95
2023-11-23T01:05:02.429Z,2.15
2023-11-23T01:07:31.379Z,1.48
2023-11-23T01:09:58.809Z,2.15
2023-11-23T01:12:26.435Z,1.98
2023-11-23T01:14:53.881Z,1.70
2023-11-23T01:17:21.295Z,1.52
2023-11-23T01:19:48.993Z,1.73
2023-11-23T01:22:16.780Z,1.42
2023-11-23T01:24:44.580Z,1.77
2023-11-23T01:27:12.239Z,1.63
2023-11-23T01:29:39.697Z,1.77
2023-11-23T01:32:08.282Z,1.95
2023-11-23T01:34:35.852Z,2.42
2023-11-23T01:37:03.584Z,1.35
2023-11-23T01:39:30.911Z,1.70
2023-11-23T01:41:58.385Z,2.22
2023-11-23T01:44:26.026Z,1.70
2023-11-23T01:46:54.520Z,1.90
2023-11-23T01:49:24.469Z,1.60
2023-11-23T01:51:52.441Z,1.80
2023-11-23T01:54:20.026Z,1.70
2023-11-23T01:56:51.735Z,1.95
2023-11-23T01:59:19.897Z,1.73
2023-11-23T02:01:47.581Z,1.98
2023-11-23T02:04:15.209Z,1.90
2023-11-23T02:06:42.470Z,1.88
2023-11-23T02:09:10.208Z,1.80
2023-11-23T02:11:37.856Z,1.90
2023-11-23T02:14:07.936Z,1.80
2023-11-23T02:16:35.832Z,1.60
2023-11-23T02:19:05.268Z,1.55
2023-11-23T02:21:32.576Z,2.20
2023-11-23T02:24:00.008Z,1.60
2023-11-23T02:26:27.928Z,1.60
2023-11-23T02:28:55.409Z,2.03
2023-11-23T02:31:22.926Z,1.67
2023-11-23T02:33:51.968Z,3.58
2023-11-23T02:36:19.664Z,1.95
2023-11-23T02:38:47.183Z,2.20
2023-11-23T02:41:14.652Z,1.88
2023-11-23T02:43:42.130Z,1.85
2023-11-23T02:46:09.586Z,1.63
2023-11-23T02:48:37.339Z,1.77
2023-11-23T02:51:04.740Z,2.22
2023-11-23T02:53:34.160Z,2.80
2023-11-23T02:56:02.321Z,1.95
2023-11-23T02:58:29.837Z,1.63
2023-11-23T03:00:57.401Z,2.00
2023-11-23T03:03:25.117Z,1.27
2023-11-23T03:05:53.061Z,2.60
2023-11-23T03:08:20.386Z,1.85
2023-11-23T03:10:47.728Z,2.15
2023-11-23T03:13:15.014Z,1.80
2023-11-23T03:15:42.325Z,1.60
2023-11-23T03:18:12.901Z,1.88
2023-11-23T03:20:42.610Z,1.90
2023-11-23T03:23:10.296Z,1.77
2023-11-23T03:25:38.372Z,1.70
2023-11-23T03:28:07.872Z,1.60
2023-11-23T03:30:37.542Z,1.60
2023-11-23T03:33:05.225Z,1.45
2023-11-23T03:35:32.899Z,1.70
2023-11-23T03:38:00.344Z,1.95
2023-11-23T03:40:27.644Z,1.83
2023-11-23T03:42:55.164Z,1.60
2023-11-23T03:45:24.333Z,1.63
2023-11-23T03:47:52.278Z,1.70
2023-11-23T03:50:19.797Z,1.67
2023-11-23T03:52:47.128Z,1.73
2023-11-23T03:55:14.480Z,1.40
2023-11-23T03:57:41.888Z,1.55
2023-11-23T04:00:09.910Z,1.55
2023-11-23T04:02:37.689Z,1.67
2023-11-23T04:05:05.475Z,2.10
2023-11-23T04:07:35.983Z,1.88
2023-11-23T04:10:05.070Z,1.40
2023-11-23T04:12:33.354Z,1.70
2023-11-23T04:15:00.924Z,1.80
2023-11-23T04:17:28.475Z,3.10
2023-11-23T04:19:56.320Z,2.25
2023-11-23T04:22:23.731Z,1.80
2023-11-23T04:24:51.505Z,1.92
2023-11-23T04:27:20.258Z,1.80
2023-11-23T04:29:49.301Z,1.85
2023-11-23T04:32:17.235Z,1.70
2023-11-23T04:34:45.806Z,1.80
2023-11-23T04:37:13.555Z,1.70
2023-11-23T04:39:41.068Z,1.63
2023-11-23T04:42:09.135Z,2.25
2023-11-23T04:44:36.559Z,1.70
2023-11-23T04:47:06.089Z,1.70
2023-11-23T04:49:33.838Z,1.95
2023-11-23T04:52:01.367Z,2.10
2023-11-23T04:54:29.009Z,1.65
2023-11-23T04:56:56.538Z,2.28
2023-11-23T04:59:24.973Z,1.70
2023-11-23T05:01:52.476Z,1.70
2023-11-23T05:04:20.151Z,1.85
2023-11-23T05:06:48.189Z,1.70
2023-11-23T05:09:15.927Z,1.70
2023-11-23T05:11:43.402Z,1.60
2023-11-23T05:14:10.890Z,1.80
2023-11-23T05:16:46.208Z,1.95
2023-11-23T05:19:16.020Z,2.40
2023-11-23T05:24:21.404Z,2.80
2023-11-23T05:26:48.924Z,2.20
2023-11-23T05:29:16.965Z,1.90
2023-11-23T05:31:44.358Z,2.15
2023-11-23T05:34:11.781Z,1.90
2023-11-23T05:36:39.156Z,1.85
2023-11-23T05:39:06.923Z,1.92
2023-11-23T05:41:34.388Z,1.83
2023-11-23T05:44:01.808Z,2.00
2023-11-23T05:46:31.962Z,1.98
2023-11-23T05:48:59.411Z,1.98
2023-11-23T05:51:26.875Z,1.85
2023-11-23T05:53:54.420Z,2.22
2023-11-23T05:56:22.243Z,2.20
2023-11-23T05:58:50.158Z,1.85
2023-11-23T06:01:17.862Z,2.30
2023-11-23T06:03:45.417Z,2.58
2023-11-23T06:06:21.264Z,2.03
2023-11-23T06:08:49.893Z,1.88
2023-11-23T06:11:18.430Z,2.13
2023-11-23T06:13:47.230Z,3.38
2023-11-23T06:16:15.860Z,2.67
2023-11-23T06:18:43.913Z,2.00
2023-11-23T06:21:11.626Z,2.45
2023-11-23T06:23:39.127Z,2.00
2023-11-23T06:26:06.579Z,2.05
2023-11-23T06:28:34.670Z,2.30
2023-11-23T06:31:02.275Z,2.38
2023-11-23T06:33:29.938Z,1.92
2023-11-23T06:35:57.974Z,2.63
2023-11-23T06:38:25.945Z,2.13
2023-11-23T06:40:54.258Z,2.30
2023-11-23T06:43:21.787Z,1.58
2023-11-23T06:45:49.503Z,2.50
2023-11-23T06:48:17.119Z,3.60
2023-11-23T06:50:45.472Z,3.42
2023-11-23T06:53:13.090Z,2.50
2023-11-23T06:55:42.288Z,2.08
2023-11-23T06:58:11.791Z,2.33
2023-11-23T07:00:40.073Z,2.60
2023-11-23T07:03:07.784Z,2.40
2023-11-23T07:05:35.156Z,2.08
2023-11-23T07:08:02.793Z,2.83
2023-11-23T07:10:30.678Z,2.35
2023-11-23T07:12:58.567Z,2.55
2023-11-23T07:15:27.904Z,2.63
2023-11-23T07:17:57.882Z,2.17
2023-11-23T07:20:25.647Z,2.17
2023-11-23T07:22:53.984Z,2.70
2023-11-23T07:25:21.832Z,2.42
2023-11-23T07:27:50.354Z,2.80
2023-11-23T07:30:18.301Z,3.30
2023-11-23T07:32:45.935Z,2.55
2023-11-23T07:35:13.900Z,2.85
2023-11-23T07:37:46.135Z,1.60
2023-11-23T07:40:15.069Z,3.40
2023-11-23T07:42:47.437Z,2.65
2023-11-23T07:45:24.541Z,1.83
2023-11-23T07:47:53.729Z,2.30
2023-11-23T07:50:21.462Z,3.05
2023-11-23T07:52:57.806Z,3.08
2023-11-23T07:55:25.203Z,3.08
2023-11-23T07:57:52.739Z,3.33
2023-11-23T08:00:21.481Z,3.00
2023-11-23T08:02:49.131Z,3.50
2023-11-23T08:05:17.259Z,2.75
2023-11-23T08:07:44.835Z,3.05
2023-11-23T08:10:16.968Z,2.08
2023-11-23T08:12:47.230Z,3.30
2023-11-23T08:15:14.967Z,3.85
2023-11-23T08:18:05.551Z,3.47
2023-11-23T08:20:38.466Z,2.78
2023-11-23T08:23:16.042Z,3.17
2023-11-23T08:25:45.699Z,2.00
2023-11-23T08:28:17.795Z,2.13
2023-11-23T08:30:54.589Z,2.00
2023-11-23T08:33:27.685Z,2.50
2023-11-23T08:36:05.996Z,2.13
2023-11-23T08:38:36.363Z,1.80
2023-11-23T08:41:08.303Z,1.85
2023-11-23T08:43:38.514Z,2.20
2023-11-23T08:46:08.617Z,2.15
2023-11-23T08:48:36.128Z,2.03
2023-11-23T08:51:05.227Z,2.50
2023-11-23T08:53:32.952Z,2.42
2023-11-23T08:56:00.536Z,2.40
2023-11-23T08:58:29.783Z,1.80
2023-11-23T09:01:03.942Z,1.90
2023-11-23T09:03:34.629Z,2.47
2023-11-23T09:06:02.352Z,2.33
2023-11-23T09:08:35.012Z,2.22
2023-11-23T09:11:06.139Z,1.80
2023-11-23T09:13:34.287Z,2.20
2023-11-23T09:16:02.084Z,2.35
2023-11-23T09:18:32.450Z,1.80
2023-11-23T09:21:03.695Z,1.80
2023-11-23T09:23:32.601Z,2.30
2023-11-23T09:26:00.751Z,2.30
2023-11-23T09:28:28.250Z,1.80
2023-11-23T09:30:55.675Z,1.98
2023-11-23T09:33:24.607Z,2.25
2023-11-23T09:35:53.396Z,1.85
2023-11-23T09:38:21.978Z,1.98
2023-11-23T09:40:53.351Z,1.75
2023-11-23T09:43:24.990Z,2.20
2023-11-23T09:45:53.267Z,1.88
2023-11-23T09:48:22.945Z,1.70
2023-11-23T09:50:52.935Z,1.92
2023-11-23T09:53:24.727Z,2.00
2023-11-23T09:55:54.565Z,2.15
2023-11-23T09:58:23.374Z,1.90
2023-11-23T10:00:52.508Z,2.00
2023-11-23T10:03:21.869Z,1.98
2023-11-23T10:05:49.407Z,2.05
2023-11-23T10:08:23.870Z,1.80
2023-11-23T10:10:53.064Z,2.10
2023-11-23T10:13:24.380Z,1.77
2023-11-23T10:15:52.100Z,1.52
2023-11-23T10:18:20.963Z,1.73
2023-11-23T10:20:51.173Z,2.00
2023-11-23T10:23:22.581Z,1.80
2023-11-23T10:25:51.132Z,2.10
2023-11-23T10:28:21.275Z,1.88
2023-11-23T10:30:48.764Z,1.98
2023-11-23T10:33:18.256Z,1.75
2023-11-23T10:35:47.929Z,1.48
2023-11-23T10:38:24.002Z,2.03
2023-11-23T10:40:55.154Z,2.50
2023-11-23T10:43:26.119Z,2.30
2023-11-23T10:45:58.157Z,2.35
2023-11-23T10:48:28.685Z,2.05
2023-11-23T10:51:02.771Z,2.15
2023-11-23T10:53:37.786Z,2.20
2023-11-23T10:56:13.058Z,2.90
2023-11-23T10:58:42.899Z,1.80
2023-11-23T11:01:12.422Z,1.98
2023-11-23T11:03:40.691Z,1.50
2023-11-23T11:06:12.226Z,1.45
2023-11-23T11:08:49.697Z,2.40
2023-11-23T11:11:22.273Z,1.98
2023-11-23T11:13:53.241Z,2.15
2023-11-23T11:16:22.287Z,2.08
2023-11-23T11:18:54.339Z,2.10
2023-11-23T11:21:22.716Z,2.30
2023-11-23T11:23:53.193Z,2.50
2023-11-23T11:26:27.316Z,2.50
2023-11-23T11:29:00.363Z,2.95
2023-11-23T11:31:37.960Z,2.45
2023-11-23T11:34:23.535Z,2.67
2023-11-23T11:36:58.113Z,2.80
2023-11-23T11:39:33.767Z,2.40
2023-11-23T11:42:01.959Z,2.35
2023-11-23T11:44:36.832Z,2.75
2023-11-23T11:47:07.605Z,2.50
2023-11-23T11:49:36.339Z,3.15
2023-11-23T11:52:03.960Z,3.03
2023-11-23T11:54:31.833Z,2.50
2023-11-23T11:56:59.467Z,2.63
2023-11-23T11:59:30.249Z,2.33
2023-11-23T12:01:58.475Z,2.67
2023-11-23T12:04:26.207Z,2.10
2023-11-23T12:06:54.431Z,1.95
2023-11-23T12:09:34.491Z,2.47
2023-11-23T12:12:07.422Z,2.33
2023-11-23T12:14:36.129Z,1.80
2023-11-23T12:17:14.683Z,2.20
2023-11-23T12:19:54.198Z,2.33
2023-11-23T12:22:32.016Z,1.90
2023-11-23T12:25:09.452Z,2.05
2023-11-23T12:27:39.380Z,2.28
2023-11-23T12:30:08.957Z,2.00
2023-11-23T12:32:36.506Z,2.20
2023-11-23T12:35:04.884Z,2.13
2023-11-23T12:37:34.860Z,2.30
2023-11-23T12:40:02.432Z,2.33
2023-11-23T12:42:31.757Z,2.40
2023-11-23T12:44:59.265Z,1.90
2023-11-23T12:47:27.991Z,2.15
2023-11-23T12:50:00.445Z,1.90
2023-11-23T12:52:28.014Z,2.65
2023-11-23T12:54:55.268Z,2.42
2023-11-23T13:02:12.676Z,2.78
2023-11-23T13:04:40.212Z,2.28
2023-11-23T13:07:08.295Z,2.50
2023-11-23T13:09:44.383Z,2.45
2023-11-23T13:12:12.922Z,2.10
2023-11-23T13:14:41.584Z,2.55
2023-11-23T13:17:09.699Z,3.05
2023-11-23T13:19:42.949Z,3.17
2023-11-23T13:22:12.088Z,2.80
2023-11-23T13:24:40.986Z,2.63
2023-11-23T13:27:09.873Z,2.25
2023-11-23T13:29:39.878Z,2.90
2023-11-23T13:33:13.038Z,2.80
2023-11-23T13:35:38.444Z,2.40
2023-11-23T13:38:06.154Z,3.05
2023-11-23T13:41:45.218Z,2.40
2023-11-23T13:44:03.463Z,2.58
2023-11-23T13:46:33.760Z,2.53
2023-11-23T13:49:01.637Z,2.85
2023-11-23T13:51:31.521Z,2.20
2023-11-23T13:54:01.184Z,3.17
2023-11-23T13:56:30.137Z,2.50
2023-11-23T13:58:58.717Z,2.20
2023-11-23T14:01:27.787Z,2.80
2023-11-23T14:03:59.171Z,2.65
2023-11-23T14:06:35.630Z,2.10
2023-11-23T14:09:05.302Z,2.53
2023-11-23T14:12:10.047Z,2.55
2023-11-23T14:15:12.327Z,2.90
2023-11-23T14:17:45.563Z,2.58
2023-11-23T14:20:13.860Z,2.93
2023-11-23T14:22:53.414Z,2.08
2023-11-23T14:25:43.807Z,2.88
2023-11-23T14:28:36.180Z,2.25
2023-11-23T14:31:07.552Z,2.50
2023-11-23T14:33:35.814Z,2.55
2023-11-23T14:36:08.289Z,2.78
2023-11-23T14:38:36.236Z,2.10
2023-11-23T14:41:03.789Z,2.65
2023-11-23T14:43:31.205Z,2.33
2023-11-23T14:46:01.758Z,2.65
2023-11-23T14:48:41.234Z,2.38
2023-11-23T14:51:11.147Z,2.38
2023-11-23T14:53:40.157Z,2.58
2023-11-23T14:57:43.866Z,2.75
2023-11-23T15:00:29.546Z,2.63
2023-11-23T15:06:56.253Z,2.83
2023-11-23T15:09:30.667Z,2.50
2023-11-23T15:12:01.818Z,2.90
2023-11-23T15:14:31.078Z,3.13
2023-11-23T15:17:06.263Z,2.47
2023-11-23T15:19:35.975Z,2.78
2023-11-23T15:22:09.393Z,2.70
2023-11-23T15:27:08.934Z,2.50
2023-11-23T15:29:40.865Z,2.00
2023-11-23T15:32:16.108Z,2.75
2023-11-23T15:34:43.547Z,2.58
2023-11-23T15:37:11.852Z,2.42
2023-11-23T15:39:39.812Z,2.92
2023-11-23T15:42:11.485Z,2.50
2023-11-23T15:50:16.264Z,3.00
2023-11-23T15:52:44.863Z,2.72
2023-11-23T15:55:12.974Z,2.65
2023-11-23T15:57:43.107Z,3.00
2023-11-23T16:00:13.234Z,3.03
2023-11-23T16:02:44.375Z,2.08
2023-11-23T16:05:22.302Z,2.90
2023-11-23T16:07:50.133Z,1.92
2023-11-23T16:10:17.645Z,2.17
2023-11-23T16:12:46.949Z,3.08
2023-11-23T16:15:17.301Z,2.75
2023-11-23T16:17:50.023Z,3.25
2023-11-23T16:20:20.388Z,2.80
2023-11-23T16:22:58.457Z,2.67
2023-11-23T16:25:28.855Z,2.90
2023-11-23T16:27:57.632Z,3.17
2023-11-23T16:30:28.168Z,3.00
2023-11-23T16:32:56.283Z,3.45
2023-11-23T16:35:23.674Z,2.78
2023-11-23T16:37:53.626Z,2.45
2023-11-23T16:40:22.289Z,2.85
2023-11-23T16:42:49.860Z,3.03
2023-11-23T16:45:17.250Z,3.10
2023-11-23T16:47:45.149Z,2.70
2023-11-23T16:50:14.169Z,2.75
2023-11-23T16:52:41.898Z,3.08
2023-11-23T16:55:10.017Z,2.65
2023-11-23T17:03:13.661Z,2.00
2023-11-23T17:05:46.942Z,3.50
2023-11-23T17:10:45.663Z,3.10
2023-11-23T17:13:16.351Z,3.20
2023-11-23T17:15:44.318Z,3.10
2023-11-23T17:18:12.106Z,2.80
2023-11-23T17:20:40.865Z,2.70
2023-11-23T17:23:10.894Z,2.30
2023-11-23T17:25:40.645Z,3.00
2023-11-23T17:28:11.057Z,2.95
2023-11-23T17:30:39.484Z,3.17
2023-11-23T17:33:07.045Z,2.50
2023-11-23T17:35:38.582Z,3.67
2023-11-23T17:38:06.973Z,3.03
2023-11-23T17:40:37.852Z,3.25
2023-11-23T17:43:05.826Z,3.13
2023-11-23T17:45:35.842Z,3.28
2023-11-23T17:48:05.526Z,4.13
2023-11-23T17:50:32.890Z,2.90
2023-11-23T17:53:00.437Z,3.03
2023-11-23T17:55:29.909Z,2.97
2023-11-23T17:57:57.700Z,3.25
2023-11-23T18:00:25.897Z,3.20
2023-11-23T18:02:53.552Z,3.45
2023-11-23T18:05:21.851Z,3.50
2023-11-23T18:07:49.237Z,2.45
2023-11-23T18:10:17.457Z,2.17
2023-11-23T18:12:46.462Z,3.42
2023-11-23T18:15:14.341Z,3.15
2023-11-23T18:17:47.970Z,3.40
2023-11-23T18:20:20.266Z,3.05
2023-11-23T18:22:47.819Z,3.03
2023-11-23T18:25:15.341Z,4.13
2023-11-23T18:27:43.217Z,3.33
2023-11-23T18:30:15.891Z,2.75
2023-11-23T18:32:43.617Z,3.40
2023-11-23T18:35:12.656Z,3.25
2023-11-23T18:37:44.651Z,2.95
2023-11-23T18:40:28.319Z,3.55
2023-11-23T18:42:57.628Z,3.70
2023-11-23T18:45:25.554Z,3.35
2023-11-23T18:47:53.818Z,3.25
2023-11-23T18:50:22.207Z,2.72
2023-11-23T18:52:51.114Z,3.00
2023-11-23T18:55:19.813Z,3.33
2023-11-23T18:57:51.034Z,3.50
2023-11-23T19:00:40.222Z,2.65
2023-11-23T19:03:07.816Z,2.92
2023-11-23T19:05:38.330Z,3.78
2023-11-23T19:08:07.445Z,2.75
2023-11-23T19:10:54.132Z,2.75
2023-11-23T19:13:29.444Z,3.05
2023-11-23T19:16:03.585Z,3.60
2023-11-23T19:18:35.484Z,3.25
2023-11-23T19:21:07.419Z,4.55
2023-11-23T19:23:36.739Z,3.40
2023-11-23T19:26:07.360Z,3.67
2023-11-23T19:28:35.136Z,4.70
2023-11-23T19:31:06.581Z,3.13
2023-11-23T19:33:37.065Z,3.38
2023-11-23T19:38:50.211Z,3.53
2023-11-23T19:41:23.005Z,3.40
2023-11-23T19:43:53.822Z,3.47
2023-11-23T19:46:27.981Z,3.08
2023-11-23T19:49:28.363Z,3.92
2023-11-23T19:52:43.372Z,3.58
2023-11-23T19:55:14.223Z,3.67
2023-11-23T19:57:42.282Z,4.57
2023-11-23T20:00:10.659Z,4.18
2023-11-23T20:02:38.399Z,3.50
2023-11-23T20:05:06.384Z,5.03
2023-11-23T20:07:36.098Z,3.80
2023-11-23T20:10:03.823Z,3.20
2023-11-23T20:12:32.332Z,3.63
2023-11-23T20:15:02.414Z,3.72
2023-11-23T20:17:35.812Z,4.18
2023-11-23T20:20:11.646Z,4.32
2023-11-23T20:22:48.547Z,4.40
2023-11-23T20:25:23.474Z,5.13
2023-11-23T20:27:59.230Z,4.20
2023-11-23T20:30:30.871Z,4.22
2023-11-23T20:33:01.940Z,5.05
2023-11-23T20:35:29.930Z,4.53
2023-11-23T20:37:57.759Z,4.93
2023-11-23T20:40:27.579Z,4.20
2023-11-23T20:43:00.561Z,3.58
2023-11-23T20:45:30.335Z,4.55
2023-11-23T20:48:00.934Z,4.00
2023-11-23T20:50:29.132Z,3.58
2023-11-23T20:52:56.458Z,3.10
2023-11-23T20:55:24.498Z,4.20
2023-11-23T20:57:53.426Z,4.47
2023-11-23T21:00:28.855Z,4.10
2023-11-23T21:02:59.985Z,3.70
2023-11-23T21:05:28.530Z,3.90
2023-11-23T21:07:56.287Z,2.75
2023-11-23T21:10:24.378Z,3.30
2023-11-23T21:12:54.218Z,3.63
2023-11-23T21:15:22.044Z,3.85
2023-11-23T21:17:49.720Z,3.88
2023-11-23T21:20:20.290Z,4.25
2023-11-23T21:22:51.317Z,2.80
2023-11-23T21:25:21.545Z,4.20
2023-11-23T21:27:52.277Z,4.07
2023-11-23T21:30:38.551Z,3.50
2023-11-23T21:33:27.699Z,3.60
2023-11-23T21:36:05.232Z,4.05
2023-11-23T21:38:35.987Z,5.35
2023-11-23T21:41:04.281Z,4.45
2023-11-23T21:43:32.113Z,3.90
2023-11-23T21:46:02.124Z,4.50
2023-11-23T21:48:32.749Z,4.05
2023-11-23T21:51:03.294Z,3.80
2023-11-23T21:53:33.806Z,4.32
2023-11-23T21:56:04.049Z,5.13
2023-11-23T21:58:34.584Z,5.28
2023-11-23T22:01:02.398Z,5.00
2023-11-23T22:03:30.292Z,3.60
2023-11-23T22:05:57.968Z,4.05
2023-11-23T22:08:25.560Z,4.35
2023-11-23T22:10:55.803Z,4.50
2023-11-23T22:13:24.458Z,4.13
2023-11-23T22:15:52.650Z,5.93
2023-11-23T22:18:21.592Z,4.22
2023-11-23T22:20:50.150Z,3.50
2023-11-23T22:23:17.831Z,5.07
2023-11-23T22:25:48.816Z,3.80
2023-11-23T22:28:22.190Z,3.92
2023-11-23T22:30:50.042Z,4.65
2023-11-23T22:33:19.195Z,3.72
2023-11-23T22:35:48.578Z,5.03
2023-11-23T22:38:16.849Z,4.10
2023-11-23T22:40:47.496Z,4.80
2023-11-23T22:43:15.672Z,4.55
2023-11-23T22:45:43.480Z,3.75
2023-11-23T22:48:11.064Z,4.18
2023-11-23T22:50:40.255Z,5.20
2023-11-23T22:53:07.752Z,5.03
2023-11-23T22:55:35.146Z,4.65
2023-11-23T22:58:02.623Z,4.55
2023-11-23T23:00:37.764Z,4.35
2023-11-23T23:03:06.486Z,4.53
2023-11-23T23:05:53.633Z,4.65
2023-11-23T23:08:21.436Z,4.55
2023-11-23T23:10:50.739Z,5.10
2023-11-23T23:13:19.129Z,4.75
2023-11-23T23:15:46.588Z,5.53
2023-11-23T23:18:14.218Z,4.80
2023-11-23T23:20:41.936Z,5.45
2023-11-23T23:23:09.327Z,3.63
2023-11-23T23:25:36.781Z,5.75
2023-11-23T23:28:05.732Z,6.70
2023-11-23T23:30:34.242Z,6.95
2023-11-23T23:33:01.803Z,6.20
2023-11-23T23:35:29.241Z,5.10
2023-11-23T23:37:56.817Z,6.22
2023-11-23T23:40:24.801Z,7.60
2023-11-23T23:42:52.317Z,6.57
2023-11-23T23:45:19.839Z,6.15
2023-11-23T23:47:47.381Z,6.15
2023-11-23T23:50:14.567Z,6.60
2023-11-23T23:52:41.961Z,7.32
2023-11-23T23:55:09.776Z,6.53
2023-11-23T23:57:38.257Z,5.22
